Time;durP1;ratioP1;P1;durP2;ratioP2;P2;SDS_P1;SDS_P2;PMS_P1;PMS_P2;Temp;Humidity;BMP_temperature;BMP_pressure;BME280_temperature;BME280_humidity;BME280_pressure;Samples;Min_cycle;Max_cycle;Signal;HPM_P1;HPM_P2
2023/08/28 00:00:14;;;;;;;9.38;3.72;;;;;;;20.93;100.00;96982.34;5025349;27;20032;-79
2023/08/28 00:02:39;;;;;;;10.30;4.22;;;;;;;20.86;100.00;96978.63;5042043;28;20128;-78
2023/08/28 00:05:05;;;;;;;9.60;4.30;;;;;;;20.72;100.00;96971.19;5022464;28;20424;-78
2023/08/28 00:07:30;;;;;;;6.65;3.90;;;;;;;20.99;100.00;96972.66;5040413;28;20481;-79
2023/08/28 00:09:56;;;;;;;7.68;4.15;;;;;;;20.92;100.00;96977.94;5033408;28;20033;-77
2023/08/28 00:12:21;;;;;;;7.57;4.30;;;;;;;20.94;100.00;96975.06;5034723;28;20036;-78
2023/08/28 00:14:47;;;;;;;11.65;4.20;;;;;;;20.90;100.00;96980.00;5047065;28;20052;-78
2023/08/28 00:17:12;;;;;;;9.48;4.75;;;;;;;20.82;100.00;96973.72;5033170;28;20028;-77
2023/08/28 00:19:38;;;;;;;12.35;4.28;;;;;;;20.89;100.00;96986.44;5039546;28;20112;-78
2023/08/28 00:22:03;;;;;;;6.47;4.70;;;;;;;20.87;100.00;96976.75;5035536;28;20489;-78
2023/08/28 00:24:29;;;;;;;12.65;4.90;;;;;;;21.14;100.00;96986.41;5039185;28;20037;-77
2023/08/28 00:26:54;;;;;;;10.82;4.70;;;;;;;20.98;100.00;96976.38;5035832;28;20405;-77
2023/08/28 00:29:20;;;;;;;12.65;5.10;;;;;;;21.07;100.00;96987.06;5036205;28;20162;-77
2023/08/28 00:31:45;;;;;;;8.07;3.78;;;;;;;21.08;100.00;96977.94;5041277;28;20078;-77
2023/08/28 00:34:10;;;;;;;12.35;4.47;;;;;;;20.98;100.00;96979.09;5038969;28;20062;-77
2023/08/28 00:36:36;;;;;;;6.60;4.18;;;;;;;20.88;100.00;96982.03;5020087;28;20156;-77
2023/08/28 00:39:02;;;;;;;9.43;4.30;;;;;;;20.81;100.00;96981.03;5037282;28;20028;-77
2023/08/28 00:41:27;;;;;;;8.13;3.65;;;;;;;20.65;100.00;96983.75;5021889;28;20021;-77
2023/08/28 00:43:53;;;;;;;5.55;4.03;;;;;;;20.55;100.00;96985.78;5039981;28;20104;-77
2023/08/28 00:46:18;;;;;;;6.65;4.22;;;;;;;20.32;100.00;96976.63;5043714;28;20480;-78
2023/08/28 00:48:44;;;;;;;16.10;4.40;;;;;;;20.25;100.00;96979.13;5036386;28;20025;-78
2023/08/28 00:51:10;;;;;;;9.50;4.50;;;;;;;20.24;100.00;96973.91;5038167;28;20021;-78
2023/08/28 00:53:36;;;;;;;6.32;3.97;;;;;;;20.10;100.00;96980.81;5025396;28;20029;-78
2023/08/28 00:56:01;;;;;;;8.50;4.50;;;;;;;20.13;100.00;96975.06;5031026;28;20053;-78
2023/08/28 00:58:27;;;;;;;11.57;4.40;;;;;;;20.02;100.00;96980.81;5041307;28;20051;-78
2023/08/28 01:00:53;;;;;;;5.97;4.10;;;;;;;19.81;100.00;96977.72;5035564;28;20021;-78
2023/08/28 01:03:18;;;;;;;15.95;4.55;;;;;;;19.68;100.00;96975.50;5054768;28;20152;-77
2023/08/28 01:06:05;;;;;;;16.90;4.95;;;;;;;19.58;100.00;96974.78;5019011;28;20085;-77
2023/08/28 01:08:51;;;;;;;11.68;4.63;;;;;;;19.60;100.00;96978.16;5037567;28;20090;-78
2023/08/28 01:11:35;;;;;;;8.02;4.43;;;;;;;19.55;100.00;96980.53;5041528;28;20029;-78
2023/08/28 01:14:12;;;;;;;10.32;4.78;;;;;;;19.65;100.00;96981.25;5031600;28;20503;-77
2023/08/28 01:16:38;;;;;;;11.25;4.38;;;;;;;19.59;100.00;96976.47;5038174;28;20021;-78
2023/08/28 01:19:05;;;;;;;9.93;4.43;;;;;;;19.56;100.00;96982.25;5039487;28;20028;-78
2023/08/28 01:21:31;;;;;;;7.72;4.15;;;;;;;19.76;100.00;96983.66;5021225;28;20100;-78
2023/08/28 01:24:03;;;;;;;12.00;5.15;;;;;;;19.73;100.00;96988.56;5036706;28;20025;-79
2023/08/28 01:26:29;;;;;;;13.57;4.90;;;;;;;19.66;100.00;96982.94;5037834;28;20101;-79
2023/08/28 01:28:54;;;;;;;11.45;4.72;;;;;;;19.77;100.00;96979.06;5022547;28;20077;-78
2023/08/28 01:31:20;;;;;;;7.47;4.82;;;;;;;19.57;100.00;96967.63;5055383;28;20017;-79
2023/08/28 01:33:45;;;;;;;7.78;4.60;;;;;;;19.52;100.00;96967.28;5035672;28;20071;-77
2023/08/28 01:36:45;;;;;;;10.98;5.10;;;;;;;19.51;100.00;96968.28;5035944;28;20021;-77
2023/08/28 01:39:33;;;;;;;9.30;4.45;;;;;;;19.33;100.00;96970.22;5008591;28;20041;-77
2023/08/28 01:41:58;;;;;;;9.80;4.18;;;;;;;19.34;100.00;96980.06;5015862;28;20026;-77
2023/08/28 01:44:28;;;;;;;8.18;4.78;;;;;;;19.40;100.00;96969.47;5035786;28;20511;-78
2023/08/28 01:46:53;;;;;;;21.75;4.75;;;;;;;19.36;100.00;96978.03;5019817;28;20460;-78
2023/08/28 01:49:19;;;;;;;12.35;4.75;;;;;;;19.39;100.00;96965.03;5035650;28;20022;-78
2023/08/28 01:51:44;;;;;;;11.05;5.07;;;;;;;19.48;100.00;96958.63;5036656;28;20025;-78
2023/08/28 01:54:09;;;;;;;11.25;4.28;;;;;;;19.43;100.00;96949.28;5034276;28;20528;-78
2023/08/28 01:56:35;;;;;;;10.50;4.70;;;;;;;19.52;100.00;96947.44;5037715;28;20039;-78
2023/08/28 01:59:02;;;;;;;9.05;4.57;;;;;;;19.45;100.00;96952.69;5039829;28;20040;-78
2023/08/28 02:01:28;;;;;;;7.45;4.25;;;;;;;19.45;100.00;96958.97;5025738;28;20393;-78
2023/08/28 02:03:53;;;;;;;10.10;4.22;;;;;;;19.50;100.00;96957.63;5023030;28;20031;-78
2023/08/28 02:06:19;;;;;;;8.77;4.50;;;;;;;19.44;100.00;96951.00;5034044;28;20026;-77
2023/08/28 02:08:45;;;;;;;7.07;4.22;;;;;;;19.56;100.00;96960.53;5031021;28;20036;-77
2023/08/28 02:11:10;;;;;;;13.95;4.55;;;;;;;19.45;100.00;96958.09;5035611;28;20047;-77
2023/08/28 02:13:36;;;;;;;9.27;5.05;;;;;;;19.39;100.00;96959.63;5017935;28;20098;-78
2023/08/28 02:16:02;;;;;;;6.93;4.30;;;;;;;19.23;100.00;96962.22;5052319;28;20603;-78
2023/08/28 02:18:28;;;;;;;14.75;5.05;;;;;;;19.20;100.00;96953.56;5032569;28;20468;-78
2023/08/28 02:20:54;;;;;;;9.20;4.32;;;;;;;19.27;100.00;96965.47;5040930;28;20090;-78
2023/08/28 02:23:19;;;;;;;10.90;4.65;;;;;;;19.27;100.00;96965.47;5033976;28;20026;-78
2023/08/28 02:25:48;;;;;;;9.68;5.45;;;;;;;19.36;100.00;96964.47;5058192;28;20116;-77
2023/08/28 02:28:13;;;;;;;8.63;5.28;;;;;;;19.34;100.00;96956.53;5029015;28;20029;-77
2023/08/28 02:30:39;;;;;;;7.00;4.75;;;;;;;19.29;100.00;96960.72;5031126;28;20043;-76
2023/08/28 02:33:04;;;;;;;17.10;7.60;;;;;;;19.14;100.00;96957.78;5021311;28;20045;-77
2023/08/28 02:35:30;;;;;;;9.93;5.95;;;;;;;19.15;100.00;96942.34;5020335;28;20033;-77
2023/08/28 02:37:55;;;;;;;21.40;6.15;;;;;;;19.20;100.00;96953.56;5034334;28;20021;-77
2023/08/28 02:40:21;;;;;;;33.78;6.30;;;;;;;19.23;100.00;96953.22;5039852;28;20033;-78
2023/08/28 02:42:47;;;;;;;35.47;7.68;;;;;;;19.22;100.00;96957.84;5030144;28;20101;-78
2023/08/28 02:45:12;;;;;;;20.35;5.93;;;;;;;19.18;100.00;96958.31;5040442;28;20365;-78
2023/08/28 02:47:38;;;;;;;22.13;6.05;;;;;;;19.00;100.00;96947.56;5037058;28;20025;-78
2023/08/28 02:50:04;;;;;;;10.55;4.75;;;;;;;19.05;100.00;96960.59;5036022;28;20034;-78
2023/08/28 02:52:30;;;;;;;28.27;5.95;;;;;;;18.93;100.00;96957.31;5033246;28;20022;-78
2023/08/28 02:54:55;;;;;;;16.95;4.90;;;;;;;18.85;100.00;96950.03;5040352;28;20028;-76
2023/08/28 02:57:21;;;;;;;9.65;4.65;;;;;;;18.76;100.00;96951.00;5040030;28;20033;-78
2023/08/28 02:59:47;;;;;;;16.05;5.40;;;;;;;18.75;100.00;96960.13;5032028;28;20020;-78
2023/08/28 03:02:12;;;;;;;14.20;5.60;;;;;;;18.75;100.00;96948.41;5040342;28;20086;-78
2023/08/28 03:04:38;;;;;;;20.10;5.65;;;;;;;18.75;100.00;96949.28;5037859;28;20022;-78
2023/08/28 03:07:04;;;;;;;16.40;5.55;;;;;;;18.79;100.00;96941.69;5040294;28;20040;-78
2023/08/28 03:09:29;;;;;;;16.10;5.55;;;;;;;19.00;100.00;96946.69;5033394;28;20519;-78
2023/08/28 03:11:55;;;;;;;15.77;5.45;;;;;;;19.06;100.00;96946.06;5020395;28;20144;-76
2023/08/28 03:14:21;;;;;;;27.33;9.77;;;;;;;19.15;100.00;96943.22;5031678;28;20346;-77
2023/08/28 03:16:47;;;;;;;26.05;9.55;;;;;;;18.96;100.00;96940.75;5037150;28;20040;-76
2023/08/28 03:19:12;;;;;;;11.30;6.38;;;;;;;18.88;100.00;96941.56;5038725;28;20108;-77
2023/08/28 03:21:38;;;;;;;20.48;5.93;;;;;;;18.75;100.00;96948.41;5036581;28;20044;-77
2023/08/28 03:24:04;;;;;;;29.27;6.13;;;;;;;18.68;100.00;96950.06;5034264;28;20521;-77
2023/08/28 03:26:30;;;;;;;12.35;4.93;;;;;;;18.76;100.00;96951.00;5038116;28;20029;-77
2023/08/28 03:28:56;;;;;;;10.13;5.50;;;;;;;18.73;100.00;96947.75;5035013;28;20036;-77
2023/08/28 03:31:22;;;;;;;17.92;6.47;;;;;;;18.60;100.00;96945.47;5039578;28;20488;-77
2023/08/28 03:33:48;;;;;;;25.73;5.78;;;;;;;18.64;100.00;96944.09;5028367;28;20129;-77
2023/08/28 03:36:13;;;;;;;14.50;5.72;;;;;;;18.60;100.00;96959.00;5037855;28;20459;-77
2023/08/28 03:38:39;;;;;;;12.07;5.00;;;;;;;18.65;100.00;96962.06;5053951;28;20329;-78
2023/08/28 03:41:04;;;;;;;11.73;4.75;;;;;;;18.66;100.00;96963.78;5043567;28;20029;-78
2023/08/28 03:43:30;;;;;;;6.55;5.03;;;;;;;18.68;100.00;96955.47;5037346;28;20041;-78
2023/08/28 03:45:55;;;;;;;14.70;5.10;;;;;;;18.56;100.00;96954.91;5038103;28;20044;-77
2023/08/28 03:48:21;;;;;;;22.70;6.53;;;;;;;18.40;100.00;96960.16;5043290;28;20033;-78
2023/08/28 03:50:46;;;;;;;62.03;8.30;;;;;;;18.25;100.00;96950.91;5041225;28;20062;-76
2023/08/28 03:53:12;;;;;;;25.52;6.93;;;;;;;18.24;100.00;96954.63;5040017;28;20029;-77
2023/08/28 03:55:38;;;;;;;39.95;8.38;;;;;;;18.23;100.00;96955.63;5018960;28;20108;-76
2023/08/28 03:58:03;;;;;;;44.80;10.73;;;;;;;18.22;100.00;96959.34;5036427;28;20024;-78
2023/08/28 04:00:32;;;;;;;25.65;8.20;;;;;;;18.16;100.00;96962.66;5037169;28;20075;-78
2023/08/28 04:02:58;;;;;;;25.42;7.43;;;;;;;18.06;100.00;96961.91;5040170;28;20025;-79
2023/08/28 04:05:26;;;;;;;31.38;8.95;;;;;;;18.23;100.00;96956.50;5035776;28;20031;-78
2023/08/28 04:07:52;;;;;;;32.03;9.93;;;;;;;18.14;100.00;96948.44;5020779;28;20036;-77
2023/08/28 04:10:18;;;;;;;22.25;8.32;;;;;;;18.11;100.00;96957.75;5034803;28;20078;-78
2023/08/28 04:12:44;;;;;;;45.33;11.52;;;;;;;18.23;100.00;96952.94;5043147;28;20029;-78
2023/08/28 04:15:09;;;;;;;38.70;10.15;;;;;;;18.39;100.00;96969.31;5018383;28;20445;-78
2023/08/28 04:17:35;;;;;;;52.17;13.23;;;;;;;18.45;100.00;96968.69;5033319;28;20059;-78
2023/08/28 04:20:13;;;;;;;26.80;8.48;;;;;;;18.33;100.00;96959.94;5020682;28;20116;-78
2023/08/28 04:22:45;;;;;;;32.15;6.72;;;;;;;18.29;100.00;96963.13;5044058;28;20458;-79
2023/08/28 04:25:12;;;;;;;30.15;6.45;;;;;;;18.34;100.00;96960.78;5026837;28;20065;-79
2023/08/28 04:27:39;;;;;;;12.30;5.80;;;;;;;18.47;100.00;96953.13;5033190;28;20128;-78
2023/08/28 04:30:05;;;;;;;29.85;8.23;;;;;;;18.50;100.00;96952.81;5040351;28;20500;-77
2023/08/28 04:32:31;;;;;;;32.65;6.75;;;;;;;18.51;100.00;96959.09;5041424;28;20056;-76
2023/08/28 04:34:56;;;;;;;25.15;6.72;;;;;;;18.68;100.00;96967.16;5040212;28;20373;-78
2023/08/28 04:37:26;;;;;;;21.65;6.10;;;;;;;18.68;100.00;96969.88;5039829;28;20029;-77
2023/08/28 04:39:52;;;;;;;16.90;6.10;;;;;;;18.58;100.00;96966.41;5032911;28;20025;-73
2023/08/28 04:42:17;;;;;;;15.45;6.20;;;;;;;18.59;100.00;96975.41;5048750;28;20059;-79
2023/08/28 04:44:43;;;;;;;22.00;6.43;;;;;;;18.68;100.00;96969.03;5032006;28;20036;-82
2023/08/28 04:47:09;;;;;;;31.75;7.00;;;;;;;18.77;100.00;96978.91;5017309;28;20018;-77
2023/08/28 04:49:34;;;;;;;38.33;7.60;;;;;;;18.83;100.00;96979.13;5011512;28;20196;-77
2023/08/28 04:52:00;;;;;;;27.67;7.30;;;;;;;18.89;100.00;96980.34;5027750;28;20030;-77
2023/08/28 04:54:25;;;;;;;27.55;7.72;;;;;;;18.93;100.00;96977.16;5028162;28;20037;-78
2023/08/28 04:56:51;;;;;;;26.95;8.35;;;;;;;19.00;100.00;96973.81;5028314;28;20036;-76
2023/08/28 04:59:16;;;;;;;54.22;9.93;;;;;;;19.24;100.00;96976.63;5034999;28;20025;-77
2023/08/28 05:01:42;;;;;;;32.05;9.25;;;;;;;19.48;100.00;96960.47;5029203;28;20033;-76
2023/08/28 05:04:08;;;;;;;29.25;10.07;;;;;;;19.64;100.00;96976.81;5009196;28;20034;-81
2023/08/28 05:06:33;;;;;;;31.85;7.63;;;;;;;19.65;100.00;96967.69;5034858;28;20071;-77
2023/08/28 05:08:59;;;;;;;32.60;7.80;;;;;;;19.72;100.00;96973.31;5043346;28;20080;-79
2023/08/28 05:11:24;;;;;;;28.08;7.95;;;;;;;19.78;100.00;96967.22;5028882;28;20043;-79
2023/08/28 05:13:49;;;;;;;62.50;9.75;;;;;;;19.88;100.00;96973.31;5042169;28;20431;-77
2023/08/28 05:16:15;;;;;;;30.45;8.32;;;;;;;20.01;100.00;96971.81;5018628;28;20121;-75
2023/08/28 05:18:40;;;;;;;19.42;7.40;;;;;;;20.16;100.00;96957.56;5015486;28;20045;-78
2023/08/28 05:21:06;;;;;;;17.85;7.80;;;;;;;20.25;100.00;96953.84;5025182;28;20037;-76
2023/08/28 05:23:50;;;;;;;18.48;8.52;;;;;;;20.41;100.00;96962.88;5033199;28;20037;-76
2023/08/28 05:26:16;;;;;;;17.30;8.32;;;;;;;20.49;100.00;96965.59;5044812;28;20029;-76
2023/08/28 05:28:41;;;;;;;20.85;7.82;;;;;;;20.62;100.00;96956.06;5027754;28;20093;-76
2023/08/28 05:31:07;;;;;;;15.95;6.95;;;;;;;20.80;100.00;96956.72;5023672;28;20589;-76
2023/08/28 05:33:34;;;;;;;12.57;6.97;;;;;;;21.10;100.00;96963.31;5008372;28;20477;-77
2023/08/28 05:35:59;;;;;;;13.48;6.15;;;;;;;21.74;100.00;96951.31;5011293;28;20430;-76
2023/08/28 05:38:25;;;;;;;24.08;9.35;;;;;;;23.36;100.00;96935.22;5017357;28;20021;-77
2023/08/28 05:40:50;;;;;;;21.45;10.15;;;;;;;25.21;100.00;96928.75;5027809;28;20060;-77
2023/08/28 05:43:16;;;;;;;27.17;12.52;;;;;;;26.98;100.00;96913.88;5039462;28;20433;-77
2023/08/28 05:45:41;;;;;;;27.02;10.63;;;;;;;28.41;87.36;96904.25;5027462;28;20030;-77
2023/08/28 05:48:07;;;;;;;25.55;10.38;;;;;;;29.31;78.87;96911.16;5036572;28;20389;-77
2023/08/28 05:50:33;;;;;;;23.73;10.70;;;;;;;30.40;68.98;96899.16;5028048;28;20389;-77
2023/08/28 05:52:59;;;;;;;19.30;9.80;;;;;;;30.53;66.77;96899.81;5027385;28;20056;-76
2023/08/28 05:55:24;;;;;;;46.45;30.17;;;;;;;31.75;58.69;96891.72;5027946;28;20071;-76
2023/08/28 05:57:50;;;;;;;19.00;10.00;;;;;;;32.36;54.27;96880.81;5033659;28;20595;-76
2023/08/28 06:00:16;;;;;;;26.60;9.18;;;;;;;32.33;54.89;96886.00;5027720;28;20032;-76
2023/08/28 06:02:42;;;;;;;27.02;14.27;;;;;;;32.76;52.80;96883.50;5030261;28;20098;-77
2023/08/28 06:05:08;;;;;;;17.08;7.78;;;;;;;33.49;50.02;96887.97;5026935;28;20029;-77
2023/08/28 06:07:34;;;;;;;187.05;18.80;;;;;;;34.18;48.03;96881.72;5015544;28;20066;-79
2023/08/28 06:10:00;;;;;;;86.13;16.85;;;;;;;34.59;48.43;96883.00;5013321;28;20025;-75
2023/08/28 06:12:25;;;;;;;45.22;10.50;;;;;;;34.00;47.27;96875.63;5008312;28;20113;-77
2023/08/28 06:14:51;;;;;;;29.42;6.90;;;;;;;33.59;48.46;96880.69;5008108;28;20034;-75
2023/08/28 06:17:16;;;;;;;28.75;6.22;;;;;;;34.13;49.53;96881.66;5040728;27;20064;-78
2023/08/28 06:19:42;;;;;;;16.88;6.53;;;;;;;34.44;48.66;96882.84;5015725;28;20093;-75
2023/08/28 06:22:07;;;;;;;15.77;6.80;;;;;;;34.81;48.08;96886.56;5036120;28;20034;-74
2023/08/28 06:24:33;;;;;;;21.98;11.65;;;;;;;34.65;47.09;96889.47;5008683;28;20090;-78
2023/08/28 06:26:59;;;;;;;16.52;7.43;;;;;;;35.30;46.22;96890.03;5042382;28;20536;-77
2023/08/28 06:29:24;;;;;;;28.83;13.98;;;;;;;35.40;43.25;96883.72;5039436;28;20037;-79
2023/08/28 06:31:50;;;;;;;17.55;6.05;;;;;;;35.40;43.30;96882.88;5007494;28;20033;-80
2023/08/28 06:34:16;;;;;;;11.93;6.07;;;;;;;35.29;42.54;96881.94;5023504;28;20037;-79
2023/08/28 06:36:41;;;;;;;39.60;9.57;;;;;;;35.90;42.52;96883.19;5025408;28;20065;-79
2023/08/28 06:39:07;;;;;;;30.17;6.53;;;;;;;35.64;41.55;96890.56;5031139;28;20539;-79
2023/08/28 06:41:33;;;;;;;43.00;8.82;;;;;;;36.30;40.88;96883.34;5030717;28;20416;-79
2023/08/28 06:44:00;;;;;;;38.65;9.63;;;;;;;36.67;39.60;96877.59;5024624;28;20461;-79
2023/08/28 06:46:26;;;;;;;14.85;7.68;;;;;;;36.65;40.66;96890.13;5043905;28;20033;-78
2023/08/28 06:48:52;;;;;;;22.27;7.60;;;;;;;36.63;40.15;96882.06;5044295;28;20534;-81
2023/08/28 06:51:19;;;;;;;26.50;7.72;;;;;;;35.89;40.02;96881.50;5008024;28;20677;-75
2023/08/28 06:53:44;;;;;;;24.25;7.55;;;;;;;35.87;40.76;96876.19;5024922;28;20145;-75
2023/08/28 06:56:10;;;;;;;11.60;5.50;;;;;;;35.46;39.52;96867.88;5023401;28;20081;-77
2023/08/28 06:58:35;;;;;;;46.60;6.45;;;;;;;35.30;40.60;96872.50;5006997;28;20208;-76
2023/08/28 07:01:01;;;;;;;10.55;4.40;;;;;;;35.40;40.32;96875.38;5007217;28;20589;-75
2023/08/28 07:03:28;;;;;;;8.70;5.25;;;;;;;35.21;40.20;96868.56;5023263;28;20121;-75
2023/08/28 07:05:53;;;;;;;8.55;4.97;;;;;;;35.31;40.46;96875.03;5023820;28;20029;-74
2023/08/28 07:08:19;;;;;;;15.88;5.68;;;;;;;35.62;40.56;96875.25;5006966;28;20454;-76
2023/08/28 07:10:44;;;;;;;11.70;5.95;;;;;;;35.94;40.14;96873.16;5023591;28;20108;-79
2023/08/28 07:13:10;;;;;;;9.45;4.93;;;;;;;36.25;40.27;96874.13;5007488;28;20466;-77
2023/08/28 07:15:35;;;;;;;15.98;6.28;;;;;;;36.49;39.78;96868.88;5025381;28;20053;-75
2023/08/28 07:18:01;;;;;;;7.40;4.93;;;;;;;35.16;41.23;96871.31;5026700;28;20528;-75
2023/08/28 07:20:26;;;;;;;10.35;4.30;;;;;;;35.50;40.54;96878.19;5010146;28;20038;-75
2023/08/28 07:22:55;;;;;;;36.70;6.40;;;;;;;35.10;41.08;96870.41;5010377;28;20510;-75
2023/08/28 07:25:22;;;;;;;12.18;5.35;;;;;;;35.90;39.87;96866.47;5010097;28;20040;-75
2023/08/28 07:27:49;;;;;;;21.15;5.47;;;;;;;35.96;39.87;96870.13;5010381;28;20045;-75
2023/08/28 07:30:14;;;;;;;5.05;4.05;;;;;;;36.66;38.64;96872.31;5010106;28;20037;-76
2023/08/28 07:32:40;;;;;;;7.03;4.20;;;;;;;37.20;37.79;96864.22;5010076;28;20057;-76
2023/08/28 07:35:07;;;;;;;8.25;4.60;;;;;;;37.04;37.25;96862.59;5026385;28;20451;-76
2023/08/28 07:37:36;;;;;;;19.80;4.90;;;;;;;37.81;36.24;96863.00;5029024;28;20068;-76
2023/08/28 07:40:04;;;;;;;32.00;6.97;;;;;;;38.14;35.76;96853.13;5029587;28;20043;-76
2023/08/28 07:42:30;;;;;;;9.20;4.97;;;;;;;38.36;35.60;96852.75;5011228;28;20033;-76
2023/08/28 07:44:55;;;;;;;9.85;4.88;;;;;;;38.40;35.17;96837.06;5026576;28;20025;-75
2023/08/28 07:47:21;;;;;;;11.50;5.03;;;;;;;38.25;35.61;96851.94;5009787;28;20106;-75
2023/08/28 07:49:47;;;;;;;12.25;5.63;;;;;;;38.94;35.21;96850.97;5009869;28;20037;-75
2023/08/28 07:52:12;;;;;;;15.27;5.90;;;;;;;39.14;34.25;96849.94;5009914;28;20117;-76
2023/08/28 07:54:38;;;;;;;8.30;4.75;;;;;;;39.17;33.92;96839.00;5009958;28;20116;-75
2023/08/28 07:57:04;;;;;;;8.23;4.80;;;;;;;39.43;33.27;96837.66;5009670;28;20492;-75
2023/08/28 07:59:29;;;;;;;15.10;4.82;;;;;;;39.81;32.76;96821.81;5018919;28;20121;-74
2023/08/28 08:01:56;;;;;;;14.18;5.03;;;;;;;39.96;32.96;96830.03;5046041;28;20060;-75
2023/08/28 08:04:21;;;;;;;16.42;5.47;;;;;;;40.19;32.57;96833.13;5045488;28;20099;-76
2023/08/28 08:06:47;;;;;;;9.45;4.53;;;;;;;39.08;33.77;96832.38;5009436;28;20628;-74
2023/08/28 08:09:12;;;;;;;12.50;4.63;;;;;;;39.44;33.83;96832.91;5025882;28;20032;-75
2023/08/28 08:11:38;;;;;;;10.00;4.95;;;;;;;39.30;33.86;96831.91;5015879;28;20089;-75
2023/08/28 08:14:03;;;;;;;11.10;4.68;;;;;;;38.92;33.62;96825.22;5047416;28;20194;-75
2023/08/28 08:16:29;;;;;;;10.70;5.10;;;;;;;39.34;34.18;96838.59;5036886;28;20480;-76
2023/08/28 08:18:54;;;;;;;12.98;4.80;;;;;;;38.44;33.72;96825.03;5038363;28;20022;-75
2023/08/28 08:21:20;;;;;;;19.10;4.63;;;;;;;39.21;33.23;96828.03;5029274;28;20505;-76
2023/08/28 08:23:47;;;;;;;13.98;4.70;;;;;;;39.56;33.25;96819.31;5045374;28;20029;-76
2023/08/28 08:26:13;;;;;;;11.85;4.32;;;;;;;39.20;32.61;96820.75;5013747;28;20063;-76
2023/08/28 08:28:39;;;;;;;8.85;4.30;;;;;;;39.78;31.44;96827.22;5009066;28;20525;-76
2023/08/28 08:31:05;;;;;;;20.00;4.78;;;;;;;40.82;30.76;96819.59;5025834;28;20078;-74
2023/08/28 08:33:31;;;;;;;24.45;4.38;;;;;;;39.78;31.38;96814.00;5025215;28;20069;-76
2023/08/28 08:35:56;;;;;;;19.05;5.05;;;;;;;39.96;31.49;96813.22;5025835;28;20131;-75
2023/08/28 08:38:22;;;;;;;13.30;4.15;;;;;;;40.81;30.25;96807.53;5017403;28;20033;-76
2023/08/28 08:40:50;;;;;;;11.93;4.70;;;;;;;41.28;30.13;96805.63;5008799;28;20033;-75
2023/08/28 08:43:17;;;;;;;6.18;4.20;;;;;;;41.55;29.31;96800.91;5008803;28;20412;-75
2023/08/28 08:45:44;;;;;;;19.60;4.88;;;;;;;42.63;28.53;96795.50;5035169;28;20480;-75
2023/08/28 08:48:10;;;;;;;5.47;3.80;;;;;;;42.20;27.58;96777.38;5044694;28;20044;-75
2023/08/28 08:50:37;;;;;;;8.05;3.72;;;;;;;42.21;27.34;96773.41;5011608;28;20120;-75
2023/08/28 08:53:06;;;;;;;11.73;3.70;;;;;;;43.06;26.74;96771.34;5008820;28;20128;-75
2023/08/28 08:55:44;;;;;;;10.00;3.92;;;;;;;43.93;25.87;96758.50;5025400;28;20075;-76
2023/08/28 08:58:11;;;;;;;17.23;4.45;;;;;;;44.39;25.81;96763.59;5017861;28;20544;-75
2023/08/28 09:00:38;;;;;;;13.65;4.43;;;;;;;44.50;25.48;96757.25;5045253;28;20033;-76
2023/08/28 09:03:07;;;;;;;6.47;3.53;;;;;;;43.91;25.99;96746.69;5031468;28;20036;-75
2023/08/28 09:05:32;;;;;;;11.25;3.97;;;;;;;43.81;26.29;96755.50;5027183;28;20025;-76
2023/08/28 09:08:04;;;;;;;6.32;3.30;;;;;;;43.71;26.03;96750.94;5029587;28;20427;-76
2023/08/28 09:10:30;;;;;;;7.07;3.45;;;;;;;44.56;25.39;96755.13;5030964;28;20449;-76
2023/08/28 09:12:56;;;;;;;9.63;3.63;;;;;;;44.26;25.26;96730.69;5030655;28;20448;-76
2023/08/28 09:15:21;;;;;;;8.15;3.50;;;;;;;44.31;24.71;96730.53;5048704;28;20112;-75
2023/08/28 09:17:47;;;;;;;5.50;3.13;;;;;;;44.43;24.86;96739.16;5047317;28;20088;-76
2023/08/28 09:20:21;;;;;;;5.63;3.00;;;;;;;44.03;23.80;96736.44;5047160;28;20084;-75
2023/08/28 09:22:51;;;;;;;3.55;2.70;;;;;;;43.93;23.83;96725.50;5013584;28;20053;-77
2023/08/28 09:25:18;;;;;;;10.82;2.53;;;;;;;44.39;23.89;96724.06;5027730;28;20037;-76
2023/08/28 09:27:45;;;;;;;3.60;2.70;;;;;;;44.46;23.58;96719.56;5027442;28;20025;-76
2023/08/28 09:30:25;;;;;;;5.43;2.90;;;;;;;44.45;23.68;96722.75;5027031;28;20033;-75
2023/08/28 09:32:51;;;;;;;6.63;2.83;;;;;;;44.44;23.61;96723.91;5027282;28;20060;-76
2023/08/28 09:35:19;;;;;;;10.90;3.60;;;;;;;45.16;23.48;96724.81;5031635;28;20431;-76
2023/08/28 09:37:45;;;;;;;5.53;2.92;;;;;;;45.56;22.79;96722.56;5046927;28;20044;-77
2023/08/28 09:40:11;;;;;;;14.48;3.20;;;;;;;45.59;22.72;96707.72;5030643;28;20480;-76
2023/08/28 09:42:36;;;;;;;9.77;3.60;;;;;;;45.38;22.75;96706.00;5029942;28;20132;-76
2023/08/28 09:45:07;;;;;;;12.45;3.15;;;;;;;45.82;21.54;96694.13;5046234;28;20457;-75
2023/08/28 09:47:33;;;;;;;13.60;2.88;;;;;;;46.51;20.96;96690.84;5040399;28;20022;-76
2023/08/28 09:49:58;;;;;;;16.25;4.22;;;;;;;47.42;20.52;96684.03;5010203;28;20049;-76
2023/08/28 09:52:25;;;;;;;12.90;2.60;;;;;;;47.91;20.88;96688.56;5031424;28;20467;-75
2023/08/28 09:55:10;;;;;;;6.93;2.70;;;;;;;48.29;19.90;96682.50;5029710;28;20505;-76
2023/08/28 09:57:35;;;;;;;11.77;2.80;;;;;;;48.08;19.83;96664.78;5010950;28;20405;-76
2023/08/28 10:00:01;;;;;;;10.15;2.90;;;;;;;48.49;19.73;96672.94;5028584;28;20029;-76
2023/08/28 10:02:27;;;;;;;6.60;2.40;;;;;;;47.66;19.85;96661.38;5029008;28;20041;-76
2023/08/28 10:04:53;;;;;;;4.43;2.60;;;;;;;47.80;20.40;96664.69;5026534;28;20033;-75
2023/08/28 10:07:22;;;;;;;5.97;3.05;;;;;;;46.79;20.89;96655.91;5027837;28;20032;-76
2023/08/28 10:09:51;;;;;;;2.72;2.30;;;;;;;45.57;21.35;96658.31;5009856;28;20427;-77
2023/08/28 10:12:17;;;;;;;5.50;3.58;;;;;;;46.85;20.64;96650.88;5026657;28;20500;-76
2023/08/28 10:14:44;;;;;;;4.07;2.50;;;;;;;47.13;20.26;96640.50;5016736;28;20148;-76
2023/08/28 10:17:12;;;;;;;7.75;3.00;;;;;;;46.73;20.80;96650.81;5029334;28;20483;-75
2023/08/28 10:20:00;;;;;;;5.82;2.97;;;;;;;46.71;20.76;96633.31;5027769;28;20071;-76
2023/08/28 10:22:27;;;;;;;8.10;3.08;;;;;;;47.55;20.20;96640.34;5010004;28;20051;-76
2023/08/28 10:24:56;;;;;;;9.23;2.75;;;;;;;47.82;19.83;96646.09;5009853;28;20017;-76
2023/08/28 10:27:21;;;;;;;4.20;2.78;;;;;;;48.65;18.94;96641.78;5026689;28;20134;-76
2023/08/28 10:29:47;;;;;;;4.30;3.30;;;;;;;48.96;18.71;96636.19;5045462;28;20496;-75
2023/08/28 10:32:13;;;;;;;3.67;2.90;;;;;;;49.10;18.74;96636.56;5029462;28;20036;-75
2023/08/28 10:34:40;;;;;;;4.00;2.45;;;;;;;48.24;19.30;96634.50;5029437;28;20037;-75
2023/08/28 10:37:08;;;;;;;4.88;2.60;;;;;;;48.45;19.33;96622.91;5046006;28;20036;-76
2023/08/28 10:39:35;;;;;;;4.60;2.20;;;;;;;48.18;18.63;96614.00;5046149;28;20082;-76
2023/08/28 10:42:01;;;;;;;7.32;2.40;;;;;;;47.96;18.58;96613.72;5045689;28;20477;-77
2023/08/28 10:44:27;;;;;;;5.53;2.40;;;;;;;47.40;18.84;96592.84;5033917;28;20029;-77
2023/08/28 10:46:53;;;;;;;2.60;2.03;;;;;;;48.28;18.42;96607.84;5026261;28;20036;-77
2023/08/28 10:49:19;;;;;;;4.32;2.55;;;;;;;48.53;18.17;96602.88;5040041;28;20055;-77
2023/08/28 10:51:44;;;;;;;10.15;2.42;;;;;;;48.82;18.38;96604.53;5029523;28;20168;-76
2023/08/28 10:54:10;;;;;;;4.38;2.20;;;;;;;49.95;17.28;96601.69;5028777;28;20033;-75
2023/08/28 10:56:38;;;;;;;5.05;2.10;;;;;;;49.98;17.39;96601.00;5016365;28;20037;-76
2023/08/28 10:59:26;;;;;;;2.53;1.83;;;;;;;48.83;18.01;96600.47;5017876;28;20105;-77
2023/08/28 11:01:56;;;;;;;7.43;1.95;;;;;;;49.32;17.39;96581.06;5045938;28;20033;-76
2023/08/28 11:04:23;;;;;;;5.22;2.15;;;;;;;47.63;18.53;96580.66;5045922;28;20498;-73
2023/08/28 11:06:49;;;;;;;8.80;2.00;;;;;;;48.51;18.21;96581.69;5018282;28;20106;-73
2023/08/28 11:09:27;;;;;;;5.05;2.40;;;;;;;49.65;17.88;96581.53;5041948;27;20532;-74
2023/08/28 11:11:59;;;;;;;7.72;2.30;;;;;;;50.12;17.23;96581.34;5025598;28;20086;-74
2023/08/28 11:14:28;;;;;;;3.03;2.00;;;;;;;50.96;16.57;96584.28;5026688;28;20033;-75
2023/08/28 11:17:09;;;;;;;4.78;2.28;;;;;;;49.48;17.42;96575.38;5025615;28;20052;-75
2023/08/28 11:19:59;;;;;;;5.32;2.03;;;;;;;49.07;17.83;96571.88;5026751;28;20025;-75
2023/08/28 11:22:41;;;;;;;2.50;2.30;;;;;;;50.34;17.23;96577.78;5009003;28;20037;-75